Patcona II — WDC2170 — position and weather

sailwx.info

Track history (hours):
 
Tides and Currents Weather Stations Pressure Air Temp Water Temp Dewpoint Dewpoint Depression Visibility Wind Speed Wind Dir Waves Ship Positions

Patcona II

More information available from US FCC via Universal Licensing System and Coast Guard Vessel Documentation Center.

Last reported at 2014-Sep-16 06:33 UTC. Time now 2014-Sep-16 07:34 UTC.
Position N 33°46' W 118°13'.

; draft 9 m.

Type: Towing. MMSI: 366988960.

Date/timePositionNaut miles runAvg speedWind from/ knotsBaromVisibWave heightAir tempDewpointWater temp
2014-Sep-16 06:33N 33°46' W 118°13'0 0.0
2014-Sep-16 05:34N 33°46' W 118°13'0 0.0
2014-Sep-16 04:33N 33°46' W 118°13'0 0.0
2014-Sep-16 03:33N 33°46' W 118°13'0 0.0
2014-Sep-16 02:34N 33°46' W 118°13'0 0.0
2014-Sep-16 01:34N 33°46' W 118°13'0 0.0
2014-Sep-16 00:34N 33°46' W 118°13'0 0.0
2014-Sep-15 23:34N 33°46' W 118°13'0 0.0
2014-Sep-15 22:33N 33°46' W 118°13'0 0.0
2014-Sep-15 21:33N 33°46' W 118°13'12036920.0
2014-Sep-15 21:23N 29°47' W 095°06'12031461.0
2014-Sep-15 20:34N 33°46' W 118°13'120346579.8
2014-Sep-15 20:32N 29°47' W 095°06'12031235.6
2014-Sep-15 19:34N 33°46' W 118°13'1203270623.5
2014-Sep-15 19:33N 29°44' W 095°08'6 6.1
2014-Sep-15 18:33N 29°43' W 095°15'11971077546.4
2014-Sep-15 18:33N 33°46' W 118°13'0 0.0
2014-Sep-15 17:34N 33°46' W 118°13'0 0.0
2014-Sep-15 16:33N 33°46' W 118°13'0 0.0
2014-Sep-15 15:33N 33°46' W 118°13'0 0.0
2014-Sep-15 14:34N 33°46' W 118°13'0 0.0
2014-Sep-15 13:33N 33°46' W 118°13'0 0.0
2014-Sep-15 12:34N 33°46' W 118°13'0 0.0
2014-Sep-15 11:33N 33°46' W 118°13'0 0.0
2014-Sep-15 10:34N 33°46' W 118°13'0 0.0
2014-Sep-15 09:34N 33°46' W 118°13'0 0.0
2014-Sep-15 08:34N 33°46' W 118°13'0 0.0
2014-Sep-15 07:34N 33°46' W 118°13'0 0.0
2014-Sep-15 06:34N 33°46' W 118°13'0 0.0
2014-Sep-15 05:33N 33°46' W 118°13'0 0.0
2014-Sep-15 04:34N 33°46' W 118°13'0 0.0
2014-Sep-15 03:33N 33°46' W 118°13'0 0.0
2014-Sep-15 02:34N 33°46' W 118°13'0 0.0
2014-Sep-15 01:34N 33°46' W 118°13'11964987.0
2014-Sep-15 01:19N 29°44' W 095°17'11961566.2
2014-Sep-15 00:33N 33°46' W 118°13'119941919.5
2014-Sep-15 00:32N 29°45' W 095°12'11991238.2
2014-Sep-14 23:34N 33°46' W 118°13'12027957.3
2014-Sep-14 23:24N 29°44' W 095°08'12021416.5
2014-Sep-14 22:34N 33°46' W 118°13'120211795.0
2014-Sep-14 22:27N 29°44' W 095°08'0 0.0
2014-Sep-14 21:33N 29°44' W 095°08'12021442928.2
2014-Sep-14 21:33N 33°46' W 118°13'0 0.0
2014-Sep-14 20:33N 33°46' W 118°13'12028046.1
2014-Sep-14 20:24N 29°44' W 095°08'12021418.3
2014-Sep-14 19:34N 33°46' W 118°13'1202618397.8
2014-Sep-14 19:33N 29°44' W 095°08'12021205.1
2014-Sep-14 18:34N 33°46' W 118°13'12027928.1
2014-Sep-14 18:24N 29°44' W 095°08'12021416.9
2014-Sep-14 17:34N 33°46' W 118°13'0 0.0
2014-Sep-14 16:33N 33°46' W 118°13'0 0.0
2014-Sep-14 15:34N 33°46' W 118°13'0 0.0
2014-Sep-14 14:34N 33°46' W 118°13'0 0.0
2014-Sep-14 13:34N 33°46' W 118°13'0 0.0
2014-Sep-14 12:34N 33°46' W 118°13'0 0.0
2014-Sep-14 11:34N 33°46' W 118°13'0 0.0
2014-Sep-14 10:34N 33°46' W 118°13'0 0.0
2014-Sep-14 09:33N 33°46' W 118°13'0 0.0
2014-Sep-14 08:34N 33°46' W 118°13'0 0.0
2014-Sep-14 07:34N 33°46' W 118°13'0 0.0
2014-Sep-14 06:33N 33°46' W 118°13'0 0.0
2014-Sep-14 05:33N 33°46' W 118°13'0 0.0
2014-Sep-14 04:33N 33°46' W 118°13'0 0.0
2014-Sep-14 03:33N 33°46' W 118°13'0 0.0
2014-Sep-14 02:33N 33°46' W 118°13'12023103.8
2014-Sep-14 02:10N 29°44' W 095°09'12021979.3
2014-Sep-14 01:34N 33°46' W 118°13'11996508.3
2014-Sep-14 01:22N 29°44' W 095°13'1199314.1
2014-Sep-13 21:34N 33°46' W 118°13'0 0.0
2014-Sep-13 20:34N 33°46' W 118°13'0 0.0
2014-Sep-13 19:34N 33°46' W 118°13'0 0.0
2014-Sep-13 18:34N 33°46' W 118°13'11972501.3
2014-Sep-13 18:05N 29°43' W 095°15'11972296.1
2014-Sep-13 17:34N 33°46' W 118°13'120020467.2
2014-Sep-13 17:30N 29°45' W 095°11'12001274.3
2014-Sep-13 16:34N 33°46' W 118°13'120419173.5
2014-Sep-13 16:30N 29°45' W 095°06'12041284.3
2014-Sep-13 15:34N 33°46' W 118°13'120490275.3
2014-Sep-13 15:33N 29°45' W 095°06'12041216.9
2014-Sep-13 14:33N 33°46' W 118°13'1204108330.0
2014-Sep-13 14:33N 29°45' W 095°06'12041220.3
2014-Sep-13 13:34N 33°46' W 118°13'120418922.4
2014-Sep-13 13:30N 29°45' W 095°06'12041285.1
2014-Sep-13 12:34N 33°46' W 118°13'1204103172.2
2014-Sep-13 12:33N 29°45' W 095°06'12041211.4
2014-Sep-13 11:33N 33°46' W 118°13'1204144440.3
2014-Sep-13 11:33N 29°45' W 095°06'12041217.2
2014-Sep-13 10:33N 33°46' W 118°13'120434951.0
2014-Sep-13 10:31N 29°46' W 095°06'12041247.2
2014-Sep-13 09:33N 33°46' W 118°13'0 0.0
2014-Sep-13 08:34N 33°46' W 118°13'0 0.0
2014-Sep-13 07:34N 33°46' W 118°13'0 0.0
2014-Sep-13 06:33N 33°46' W 118°13'0 0.0
2014-Sep-13 05:34N 33°46' W 118°13'0 0.0
2014-Sep-13 04:34N 33°46' W 118°13'12035013.8
2014-Sep-13 04:19N 29°47' W 095°06'12031583.3
2014-Sep-13 03:34N 33°46' W 118°13'0 0.0
2014-Sep-13 02:33N 33°46' W 118°13'0 0.0
2014-Sep-13 01:33N 33°46' W 118°13'120321553.1
2014-Sep-13 01:30N 29°47' W 095°06'12031277.9
2014-Sep-13 00:34N 33°46' W 118°13'1204309565.3
2014-Sep-13 00:33N 29°45' W 095°06'12041205.2
2014-Sep-12 23:33N 33°46' W 118°13'120411873.8
2014-Sep-12 23:27N 29°45' W 095°06'12041339.3
2014-Sep-12 22:33N 33°46' W 118°13'120423052.8
2014-Sep-12 22:30N 29°45' W 095°06'12041274.3
2014-Sep-12 21:34N 33°46' W 118°13'12043396.5
2014-Sep-12 21:12N 29°45' W 095°06'12041856.9
2014-Sep-12 20:33N 33°46' W 118°13'120422930.8
2014-Sep-12 20:30N 29°45' W 095°06'12041270.2
2014-Sep-12 19:33N 33°46' W 118°13'120423300.7
2014-Sep-12 19:30N 29°45' W 095°06'12041273.6
2014-Sep-12 18:34N 33°46' W 118°13'1204288928.4
2014-Sep-12 18:33N 29°45' W 095°06'12041205.9
2014-Sep-12 17:33N 33°46' W 118°13'120422690.7
2014-Sep-12 17:30N 29°45' W 095°06'12041267.2
2014-Sep-12 16:33N 33°46' W 118°13'120424347.9
2014-Sep-12 16:30N 29°45' W 095°06'12041266.5
2014-Sep-12 15:33N 33°46' W 118°13'120412208.2
2014-Sep-12 15:27N 29°45' W 095°06'12041339.7
2014-Sep-12 14:33N 33°46' W 118°13'0 0.0
2014-Sep-12 13:33N 33°46' W 118°13'120222664.7
2014-Sep-12 13:30N 29°44' W 095°08'12021270.6
2014-Sep-12 12:33N 33°46' W 118°13'0 0.0
2014-Sep-12 11:33N 33°46' W 118°13'0 0.0
2014-Sep-12 10:34N 33°46' W 118°13'0 0.0
2014-Sep-12 09:34N 33°46' W 118°13'0 0.0
2014-Sep-12 08:34N 33°46' W 118°13'0 0.0
2014-Sep-12 07:34N 33°46' W 118°13'0 0.0
2014-Sep-12 06:34N 33°46' W 118°13'0 0.0
2014-Sep-12 05:34N 33°46' W 118°13'0 0.0
2014-Sep-12 04:34N 33°46' W 118°13'120210903.2
2014-Sep-12 04:27N 29°44' W 095°08'12021348.5
2014-Sep-12 03:33N 33°46' W 118°13'120388401.7
2014-Sep-12 03:33N 29°44' W 095°07'12031219.8
2014-Sep-12 02:33N 33°46' W 118°13'12033309.1
2014-Sep-12 02:12N 29°44' W 095°07'12031892.4
2014-Sep-12 01:33N 33°46' W 118°13'120319082.3
2014-Sep-12 01:30N 29°44' W 095°07'12031284.2
2014-Sep-12 00:33N 33°46' W 118°13'12033923.6
2014-Sep-12 00:15N 29°44' W 095°07'12031734.8
2014-Sep-11 23:33N 33°46' W 118°13'120468773.7
2014-Sep-11 23:32N 29°46' W 095°06'12041225.0
2014-Sep-11 22:33N 33°46' W 118°13'1203188344.6
2014-Sep-11 22:33N 29°47' W 095°06'12031211.0
2014-Sep-11 21:33N 33°46' W 118°13'12031082978.6
2014-Sep-11 21:33N 29°47' W 095°06'12031201.3
2014-Sep-11 20:33N 33°46' W 118°13'1203333225.1
2014-Sep-11 20:33N 29°47' W 095°06'12031210.7
2014-Sep-11 19:33N 33°46' W 118°13'0 0.0
2014-Sep-11 18:33N 33°46' W 118°13'1203188343.2
2014-Sep-11 18:33N 29°47' W 095°06'12031210.7
2014-Sep-11 17:33N 33°46' W 118°13'120483369.7
2014-Sep-11 17:33N 29°46' W 095°05'12041221.9
2014-Sep-11 16:33N 33°46' W 118°13'1203196912.1
2014-Sep-11 16:33N 29°45' W 095°07'12031210.8
2014-Sep-11 15:33N 33°46' W 118°13'120369872.0
2014-Sep-11 15:32N 29°45' W 095°07'12031224.4
2014-Sep-11 14:33N 33°46' W 118°13'12032166033.3
2014-Sep-11 14:33N 29°45' W 095°07'12031204.0
2014-Sep-11 13:33N 33°46' W 118°13'120338679.2
2014-Sep-11 13:32N 29°45' W 095°07'12031242.3
2014-Sep-11 12:33N 33°46' W 118°13'120359318.6
2014-Sep-11 12:32N 29°44' W 095°08'12031227.7
2014-Sep-11 11:33N 33°46' W 118°13'120237312.3
2014-Sep-11 11:31N 29°44' W 095°08'12021242.0
2014-Sep-11 10:33N 33°46' W 118°13'12023591.9
2014-Sep-11 10:13N 29°44' W 095°08'12021807.2
2014-Sep-11 09:33N 33°46' W 118°13'0 0.0
2014-Sep-11 08:33N 33°46' W 118°13'0 0.0
2014-Sep-11 07:33N 33°46' W 118°13'0 0.0
2014-Sep-11 06:33N 33°46' W 118°13'0 0.0
2014-Sep-11 05:33N 33°46' W 118°13'0 0.0
2014-Sep-11 04:33N 33°46' W 118°13'0 0.0
2014-Sep-11 03:33N 33°46' W 118°13'0 0.0
2014-Sep-11 02:33N 33°46' W 118°13'12026923.6
2014-Sep-11 02:23N 29°44' W 095°09'12021454.5
2014-Sep-11 01:33N 33°46' W 118°13'1205127611.8
2014-Sep-11 01:33N 29°45' W 095°04'12051216.7
2014-Sep-11 00:33N 33°46' W 118°13'1208310672.6
2014-Sep-11 00:33N 29°44' W 095°01'12081213.2
2014-Sep-10 23:33N 33°46' W 118°13'1208289961.1
2014-Sep-10 23:33N 29°44' W 095°01'0 0.0
2014-Sep-10 22:33N 29°44' W 095°01'120865900.3
2014-Sep-10 22:32N 33°46' W 118°13'12081237.7
2014-Sep-10 21:33N 29°44' W 095°01'1208724901.7
2014-Sep-10 21:33N 33°46' W 118°13'12081210.2
2014-Sep-10 20:33N 29°44' W 095°01'1208724902.8
2014-Sep-10 20:33N 33°46' W 118°13'12081209.8
2014-Sep-10 19:33N 29°44' W 095°01'1208724901.7
2014-Sep-10 19:33N 33°46' W 118°13'0 0.0
2014-Sep-10 18:33N 33°46' W 118°13'12081449803.4
2014-Sep-10 18:33N 29°44' W 095°01'4 4.3
2014-Sep-10 17:33N 29°40' W 094°59'12128485.8
2014-Sep-10 17:25N 33°46' W 118°13'0 0.0
2014-Sep-10 16:33N 33°46' W 118°13'1216312672.7
2014-Sep-10 16:33N 29°34' W 094°55'12161220.7
2014-Sep-10 15:33N 33°46' W 118°13'1221314034.3
2014-Sep-10 15:33N 29°28' W 094°51'12211226.0
2014-Sep-10 14:33N 33°46' W 118°13'122613214.0
2014-Sep-10 14:28N 29°22' W 094°48'12261269.3
2014-Sep-10 13:30N 33°46' W 118°13'0 0.0
2014-Sep-10 12:32N 33°46' W 118°13'0 0.0
2014-Sep-10 11:33N 33°46' W 118°13'0 0.0
2014-Sep-10 10:33N 33°46' W 118°13'0 0.0
2014-Sep-10 09:33N 33°46' W 118°13'0 0.0
2014-Sep-10 08:33N 33°46' W 118°13'0 0.0
2014-Sep-10 07:33N 33°46' W 118°13'0 0.0
2014-Sep-10 06:33N 33°46' W 118°13'0 0.0
2014-Sep-10 05:33N 33°46' W 118°13'0 0.0
2014-Sep-10 04:33N 33°46' W 118°13'0 0.0
2014-Sep-10 03:33N 33°46' W 118°13'0 0.0
2014-Sep-10 02:33N 33°46' W 118°13'0 0.0
2014-Sep-10 01:33N 33°46' W 118°13'0 0.0
2014-Sep-10 00:33N 33°46' W 118°13'0 0.0
2014-Sep-09 23:23N 33°46' W 118°13'0 0.0
2014-Sep-09 22:27N 33°46' W 118°13'0 0.0
2014-Sep-09 21:33N 33°46' W 118°13'0 0.0
2014-Sep-09 20:33N 33°46' W 118°13'0 0.0
2014-Sep-09 19:33N 33°46' W 118°13'0 0.0
2014-Sep-09 18:33N 33°46' W 118°13'0 0.0
2014-Sep-09 17:18N 33°46' W 118°13'0 0.0
2014-Sep-09 16:33N 33°46' W 118°13'0 0.0
2014-Sep-09 15:33N 33°46' W 118°13'0 0.0
2014-Sep-09 14:33N 33°46' W 118°13'0 0.0
2014-Sep-09 13:32N 33°46' W 118°13'0 0.0
2014-Sep-09 12:32N 33°46' W 118°13'0 0.0
2014-Sep-09 11:33N 33°46' W 118°13'0 0.0
2014-Sep-09 10:33N 33°46' W 118°13'0 0.0
2014-Sep-09 09:29N 33°46' W 118°13'0 0.0
2014-Sep-09 08:32N 33°46' W 118°13'0 0.0
2014-Sep-09 07:28N 33°46' W 118°13'0 0.0
2014-Sep-09 06:21N 33°46' W 118°13'0 0.0
2014-Sep-09 03:08N 33°46' W 118°13'0 0.0
2014-Sep-09 02:16N 33°46' W 118°13'0 0.0
2014-Sep-09 01:19N 33°46' W 118°13'0 0.0
2014-Sep-09 00:33N 33°46' W 118°13'0 0.0
2014-Sep-08 23:33N 33°46' W 118°13'12264970.1
2014-Sep-08 23:19N 29°22' W 094°48'5 6.9
2014-Sep-08 22:33N 29°27' W 094°51'122214669.1
2014-Sep-08 22:28N 33°46' W 118°13'12171327.7
2014-Sep-08 21:33N 29°33' W 094°55'7 7.5
2014-Sep-08 20:33N 29°40' W 094°58'1212229606.8
2014-Sep-08 20:33N 33°46' W 118°13'12061205.1
2014-Sep-08 19:33N 29°45' W 095°04'12067510.2
2014-Sep-08 19:23N 33°46' W 118°13'0 0.0
2014-Sep-08 18:32N 33°46' W 118°13'120062590.9
2014-Sep-08 18:31N 29°45' W 095°11'12001248.2
2014-Sep-08 17:33N 33°46' W 118°13'0 0.0
2014-Sep-08 16:33N 33°46' W 118°13'0 0.0
2014-Sep-08 15:32N 33°46' W 118°13'0 0.0
2014-Sep-08 14:33N 33°46' W 118°13'0 0.0
2014-Sep-08 13:33N 33°46' W 118°13'0 0.0
2014-Sep-08 12:30N 33°46' W 118°13'0 0.0
2014-Sep-08 11:33N 33°46' W 118°13'0 0.0
2014-Sep-08 10:33N 33°46' W 118°13'0 0.0
2014-Sep-08 09:32N 33°46' W 118°13'0 0.0
2014-Sep-08 08:33N 33°46' W 118°13'119776967.7
2014-Sep-08 08:32N 29°43' W 095°15'5 5.2
2014-Sep-08 07:34N 29°44' W 095°09'1202618055.3
2014-Sep-08 07:33N 33°46' W 118°13'0 0.0
2014-Sep-08 06:33N 33°46' W 118°13'12037520.7
2014-Sep-08 06:24N 29°47' W 095°06'12031433.0
2014-Sep-08 05:33N 33°46' W 118°13'12034698.4
2014-Sep-08 05:18N 29°47' W 095°06'12031611.6
2014-Sep-08 04:33N 33°46' W 118°13'0 0.0
2014-Sep-08 03:33N 33°46' W 118°13'0 0.0
2014-Sep-08 02:33N 33°46' W 118°13'0 0.0
2014-Sep-08 01:33N 33°46' W 118°13'0 0.0
2014-Sep-08 00:33N 33°46' W 118°13'0 0.0
2014-Sep-07 23:32N 33°46' W 118°13'1203607.0
2014-Sep-07 21:33N 29°47' W 095°06'12032165984.1
2014-Sep-07 21:33N 33°46' W 118°13'0 0.0
2014-Sep-07 20:33N 33°46' W 118°13'12035854.0
2014-Sep-07 20:21N 29°47' W 095°06'12031521.1
2014-Sep-07 19:33N 33°46' W 118°13'1204722503.1
2014-Sep-07 19:33N 29°46' W 095°05'12041196.2
2014-Sep-07 18:33N 33°46' W 118°13'119929982.4
2014-Sep-07 18:31N 29°45' W 095°12'11991256.5
2014-Sep-07 17:33N 33°46' W 118°13'0 0.0
2014-Sep-07 16:33N 33°46' W 118°13'0 0.0
2014-Sep-07 15:33N 33°46' W 118°13'0 0.0
2014-Sep-07 14:33N 33°46' W 118°13'0 0.0
2014-Sep-07 13:33N 33°46' W 118°13'0 0.0
2014-Sep-07 12:33N 33°46' W 118°13'11985302.7
2014-Sep-07 12:20N 29°43' W 095°14'11981551.9
2014-Sep-07 11:33N 33°46' W 118°13'0 0.0
2014-Sep-07 10:33N 33°46' W 118°13'0 0.0
2014-Sep-07 09:33N 33°46' W 118°13'0 0.0
2014-Sep-07 08:25N 33°46' W 118°13'0 0.0
2014-Sep-07 07:33N 33°46' W 118°13'0 0.0
2014-Sep-07 06:33N 33°46' W 118°13'0 0.0
2014-Sep-07 05:33N 33°46' W 118°13'0 0.0
2014-Sep-07 04:33N 33°46' W 118°13'0 0.0
2014-Sep-07 03:33N 33°46' W 118°13'0 0.0
2014-Sep-07 02:33N 33°46' W 118°13'0 0.0
2014-Sep-07 01:33N 33°46' W 118°13'0 0.0
2014-Sep-07 00:33N 33°46' W 118°13'0 0.0
2014-Sep-06 23:33N 33°46' W 118°13'0 0.0
2014-Sep-06 22:29N 33°46' W 118°13'0 0.0
2014-Sep-06 21:33N 33°46' W 118°13'0 0.1
2014-Sep-06 20:33N 33°46' W 118°13'119621530.3
2014-Sep-06 20:30N 29°44' W 095°16'11961259.1
2014-Sep-06 19:33N 33°46' W 118°13'1200432148.9
2014-Sep-06 19:33N 29°45' W 095°10'12001210.5
2014-Sep-06 18:33N 33°46' W 118°13'120427602.5
2014-Sep-06 18:31N 29°45' W 095°06'12041259.0
2014-Sep-06 17:33N 33°46' W 118°13'1204393946.4
2014-Sep-06 17:33N 29°45' W 095°06'0 0.0
2014-Sep-06 16:33N 29°45' W 095°06'12042960.0
2014-Sep-06 16:09N 33°46' W 118°13'0 0.0
2014-Sep-06 15:33N 33°46' W 118°13'1204722239.2
2014-Sep-06 15:33N 29°45' W 095°06'0 0.0
2014-Sep-06 14:33N 29°45' W 095°06'12041444478.4
2014-Sep-06 14:33N 33°46' W 118°13'12041145.5
2014-Sep-06 13:30N 29°45' W 095°06'0 0.0
2014-Sep-06 12:33N 29°45' W 095°06'120433592.5
2014-Sep-06 12:31N 33°46' W 118°13'12041188.5
2014-Sep-06 11:30N 29°45' W 095°06'12046835.1
2014-Sep-06 11:20N 33°46' W 118°13'12041303.3
2014-Sep-06 10:24N 29°45' W 095°06'0 0.0
2014-Sep-06 09:33N 29°45' W 095°06'0 0.0
2014-Sep-06 08:33N 29°45' W 095°06'120486668.7
2014-Sep-06 08:32N 33°46' W 118°13'12041220.0
2014-Sep-06 07:33N 29°45' W 095°06'120414444.8
2014-Sep-06 07:28N 33°46' W 118°13'  
Track history (hours):
 
Tides and Currents Weather Stations Pressure Air Temp Water Temp Dewpoint Dewpoint Depression Visibility Wind Speed Wind Dir Waves Ship Positions

Patcona II

More information available from US FCC via Universal Licensing System and Coast Guard Vessel Documentation Center.

Last reported at 2014-Sep-16 06:33 UTC. Time now 2014-Sep-16 07:34 UTC.
Position N 33°46' W 118°13'.

; draft 9 m.

Type: Towing. MMSI: 366988960.

Date/timePositionNaut miles runAvg speedWind from/ knotsBaromVisibWave heightAir tempDewpointWater temp
2014-Sep-16 06:33N 33°46' W 118°13'0 0.0
2014-Sep-16 05:34N 33°46' W 118°13'0 0.0
2014-Sep-16 04:33N 33°46' W 118°13'0 0.0
2014-Sep-16 03:33N 33°46' W 118°13'0 0.0
2014-Sep-16 02:34N 33°46' W 118°13'0 0.0
2014-Sep-16 01:34N 33°46' W 118°13'0 0.0
2014-Sep-16 00:34N 33°46' W 118°13'0 0.0
2014-Sep-15 23:34N 33°46' W 118°13'0 0.0
2014-Sep-15 22:33N 33°46' W 118°13'0 0.0
2014-Sep-15 21:33N 33°46' W 118°13'12036920.0
2014-Sep-15 21:23N 29°47' W 095°06'12031461.0
2014-Sep-15 20:34N 33°46' W 118°13'120346579.8
2014-Sep-15 20:32N 29°47' W 095°06'12031235.6
2014-Sep-15 19:34N 33°46' W 118°13'1203270623.5
2014-Sep-15 19:33N 29°44' W 095°08'6 6.1
2014-Sep-15 18:33N 29°43' W 095°15'11971077546.4
2014-Sep-15 18:33N 33°46' W 118°13'0 0.0
2014-Sep-15 17:34N 33°46' W 118°13'0 0.0
2014-Sep-15 16:33N 33°46' W 118°13'0 0.0
2014-Sep-15 15:33N 33°46' W 118°13'0 0.0
2014-Sep-15 14:34N 33°46' W 118°13'0 0.0
2014-Sep-15 13:33N 33°46' W 118°13'0 0.0
2014-Sep-15 12:34N 33°46' W 118°13'0 0.0
2014-Sep-15 11:33N 33°46' W 118°13'0 0.0
2014-Sep-15 10:34N 33°46' W 118°13'0 0.0
2014-Sep-15 09:34N 33°46' W 118°13'0 0.0
2014-Sep-15 08:34N 33°46' W 118°13'0 0.0
2014-Sep-15 07:34N 33°46' W 118°13'0 0.0
2014-Sep-15 06:34N 33°46' W 118°13'0 0.0
2014-Sep-15 05:33N 33°46' W 118°13'0 0.0
2014-Sep-15 04:34N 33°46' W 118°13'0 0.0
2014-Sep-15 03:33N 33°46' W 118°13'0 0.0
2014-Sep-15 02:34N 33°46' W 118°13'0 0.0
2014-Sep-15 01:34N 33°46' W 118°13'11964987.0
2014-Sep-15 01:19N 29°44' W 095°17'11961566.2
2014-Sep-15 00:33N 33°46' W 118°13'119941919.5
2014-Sep-15 00:32N 29°45' W 095°12'11991238.2
2014-Sep-14 23:34N 33°46' W 118°13'12027957.3
2014-Sep-14 23:24N 29°44' W 095°08'12021416.5
2014-Sep-14 22:34N 33°46' W 118°13'120211795.0
2014-Sep-14 22:27N 29°44' W 095°08'0 0.0
2014-Sep-14 21:33N 29°44' W 095°08'12021442928.2
2014-Sep-14 21:33N 33°46' W 118°13'0 0.0
2014-Sep-14 20:33N 33°46' W 118°13'12028046.1
2014-Sep-14 20:24N 29°44' W 095°08'12021418.3
2014-Sep-14 19:34N 33°46' W 118°13'1202618397.8
2014-Sep-14 19:33N 29°44' W 095°08'12021205.1
2014-Sep-14 18:34N 33°46' W 118°13'12027928.1
2014-Sep-14 18:24N 29°44' W 095°08'12021416.9
2014-Sep-14 17:34N 33°46' W 118°13'0 0.0
2014-Sep-14 16:33N 33°46' W 118°13'0 0.0
2014-Sep-14 15:34N 33°46' W 118°13'0 0.0
2014-Sep-14 14:34N 33°46' W 118°13'0 0.0
2014-Sep-14 13:34N 33°46' W 118°13'0 0.0
2014-Sep-14 12:34N 33°46' W 118°13'0 0.0
2014-Sep-14 11:34N 33°46' W 118°13'0 0.0
2014-Sep-14 10:34N 33°46' W 118°13'0 0.0
2014-Sep-14 09:33N 33°46' W 118°13'0 0.0
2014-Sep-14 08:34N 33°46' W 118°13'0 0.0
2014-Sep-14 07:34N 33°46' W 118°13'0 0.0
2014-Sep-14 06:33N 33°46' W 118°13'0 0.0
2014-Sep-14 05:33N 33°46' W 118°13'0 0.0
2014-Sep-14 04:33N 33°46' W 118°13'0 0.0
2014-Sep-14 03:33N 33°46' W 118°13'0 0.0
2014-Sep-14 02:33N 33°46' W 118°13'12023103.8
2014-Sep-14 02:10N 29°44' W 095°09'12021979.3
2014-Sep-14 01:34N 33°46' W 118°13'11996508.3
2014-Sep-14 01:22N 29°44' W 095°13'1199314.1
2014-Sep-13 21:34N 33°46' W 118°13'0 0.0
2014-Sep-13 20:34N 33°46' W 118°13'0 0.0
2014-Sep-13 19:34N 33°46' W 118°13'0 0.0
2014-Sep-13 18:34N 33°46' W 118°13'11972501.3
2014-Sep-13 18:05N 29°43' W 095°15'11972296.1
2014-Sep-13 17:34N 33°46' W 118°13'120020467.2
2014-Sep-13 17:30N 29°45' W 095°11'12001274.3
2014-Sep-13 16:34N 33°46' W 118°13'120419173.5
2014-Sep-13 16:30N 29°45' W 095°06'12041284.3
2014-Sep-13 15:34N 33°46' W 118°13'120490275.3
2014-Sep-13 15:33N 29°45' W 095°06'12041216.9
2014-Sep-13 14:33N 33°46' W 118°13'1204108330.0
2014-Sep-13 14:33N 29°45' W 095°06'12041220.3
2014-Sep-13 13:34N 33°46' W 118°13'120418922.4
2014-Sep-13 13:30N 29°45' W 095°06'12041285.1
2014-Sep-13 12:34N 33°46' W 118°13'1204103172.2
2014-Sep-13 12:33N 29°45' W 095°06'12041211.4
2014-Sep-13 11:33N 33°46' W 118°13'1204144440.3
2014-Sep-13 11:33N 29°45' W 095°06'12041217.2
2014-Sep-13 10:33N 33°46' W 118°13'120434951.0
2014-Sep-13 10:31N 29°46' W 095°06'12041247.2
2014-Sep-13 09:33N 33°46' W 118°13'0 0.0
2014-Sep-13 08:34N 33°46' W 118°13'0 0.0
2014-Sep-13 07:34N 33°46' W 118°13'0 0.0
2014-Sep-13 06:33N 33°46' W 118°13'0 0.0
2014-Sep-13 05:34N 33°46' W 118°13'0 0.0
2014-Sep-13 04:34N 33°46' W 118°13'12035013.8
2014-Sep-13 04:19N 29°47' W 095°06'12031583.3
2014-Sep-13 03:34N 33°46' W 118°13'0 0.0
2014-Sep-13 02:33N 33°46' W 118°13'0 0.0
2014-Sep-13 01:33N 33°46' W 118°13'120321553.1
2014-Sep-13 01:30N 29°47' W 095°06'12031277.9
2014-Sep-13 00:34N 33°46' W 118°13'1204309565.3
2014-Sep-13 00:33N 29°45' W 095°06'12041205.2
2014-Sep-12 23:33N 33°46' W 118°13'120411873.8
2014-Sep-12 23:27N 29°45' W 095°06'12041339.3
2014-Sep-12 22:33N 33°46' W 118°13'120423052.8
2014-Sep-12 22:30N 29°45' W 095°06'12041274.3
2014-Sep-12 21:34N 33°46' W 118°13'12043396.5
2014-Sep-12 21:12N 29°45' W 095°06'12041856.9
2014-Sep-12 20:33N 33°46' W 118°13'120422930.8
2014-Sep-12 20:30N 29°45' W 095°06'12041270.2
2014-Sep-12 19:33N 33°46' W 118°13'120423300.7
2014-Sep-12 19:30N 29°45' W 095°06'12041273.6
2014-Sep-12 18:34N 33°46' W 118°13'1204288928.4
2014-Sep-12 18:33N 29°45' W 095°06'12041205.9
2014-Sep-12 17:33N 33°46' W 118°13'120422690.7
2014-Sep-12 17:30N 29°45' W 095°06'12041267.2
2014-Sep-12 16:33N 33°46' W 118°13'120424347.9
2014-Sep-12 16:30N 29°45' W 095°06'12041266.5
2014-Sep-12 15:33N 33°46' W 118°13'120412208.2
2014-Sep-12 15:27N 29°45' W 095°06'12041339.7
2014-Sep-12 14:33N 33°46' W 118°13'0 0.0
2014-Sep-12 13:33N 33°46' W 118°13'120222664.7
2014-Sep-12 13:30N 29°44' W 095°08'12021270.6
2014-Sep-12 12:33N 33°46' W 118°13'0 0.0
2014-Sep-12 11:33N 33°46' W 118°13'0 0.0
2014-Sep-12 10:34N 33°46' W 118°13'0 0.0
2014-Sep-12 09:34N 33°46' W 118°13'0 0.0
2014-Sep-12 08:34N 33°46' W 118°13'0 0.0
2014-Sep-12 07:34N 33°46' W 118°13'0 0.0
2014-Sep-12 06:34N 33°46' W 118°13'0 0.0
2014-Sep-12 05:34N 33°46' W 118°13'0 0.0
2014-Sep-12 04:34N 33°46' W 118°13'120210903.2
2014-Sep-12 04:27N 29°44' W 095°08'12021348.5
2014-Sep-12 03:33N 33°46' W 118°13'120388401.7
2014-Sep-12 03:33N 29°44' W 095°07'12031219.8
2014-Sep-12 02:33N 33°46' W 118°13'12033309.1
2014-Sep-12 02:12N 29°44' W 095°07'12031892.4
2014-Sep-12 01:33N 33°46' W 118°13'120319082.3
2014-Sep-12 01:30N 29°44' W 095°07'12031284.2
2014-Sep-12 00:33N 33°46' W 118°13'12033923.6
2014-Sep-12 00:15N 29°44' W 095°07'12031734.8
2014-Sep-11 23:33N 33°46' W 118°13'120468773.7
2014-Sep-11 23:32N 29°46' W 095°06'12041225.0
2014-Sep-11 22:33N 33°46' W 118°13'1203188344.6
2014-Sep-11 22:33N 29°47' W 095°06'12031211.0
2014-Sep-11 21:33N 33°46' W 118°13'12031082978.6
2014-Sep-11 21:33N 29°47' W 095°06'12031201.3
2014-Sep-11 20:33N 33°46' W 118°13'1203333225.1
2014-Sep-11 20:33N 29°47' W 095°06'12031210.7
2014-Sep-11 19:33N 33°46' W 118°13'0 0.0
2014-Sep-11 18:33N 33°46' W 118°13'1203188343.2
2014-Sep-11 18:33N 29°47' W 095°06'12031210.7
2014-Sep-11 17:33N 33°46' W 118°13'120483369.7
2014-Sep-11 17:33N 29°46' W 095°05'12041221.9
2014-Sep-11 16:33N 33°46' W 118°13'1203196912.1
2014-Sep-11 16:33N 29°45' W 095°07'12031210.8
2014-Sep-11 15:33N 33°46' W 118°13'120369872.0
2014-Sep-11 15:32N 29°45' W 095°07'12031224.4
2014-Sep-11 14:33N 33°46' W 118°13'12032166033.3
2014-Sep-11 14:33N 29°45' W 095°07'12031204.0
2014-Sep-11 13:33N 33°46' W 118°13'120338679.2
2014-Sep-11 13:32N 29°45' W 095°07'12031242.3
2014-Sep-11 12:33N 33°46' W 118°13'120359318.6
2014-Sep-11 12:32N 29°44' W 095°08'12031227.7
2014-Sep-11 11:33N 33°46' W 118°13'120237312.3
2014-Sep-11 11:31N 29°44' W 095°08'12021242.0
2014-Sep-11 10:33N 33°46' W 118°13'12023591.9
2014-Sep-11 10:13N 29°44' W 095°08'12021807.2
2014-Sep-11 09:33N 33°46' W 118°13'0 0.0
2014-Sep-11 08:33N 33°46' W 118°13'0 0.0
2014-Sep-11 07:33N 33°46' W 118°13'0 0.0
2014-Sep-11 06:33N 33°46' W 118°13'0 0.0
2014-Sep-11 05:33N 33°46' W 118°13'0 0.0
2014-Sep-11 04:33N 33°46' W 118°13'0 0.0
2014-Sep-11 03:33N 33°46' W 118°13'0 0.0
2014-Sep-11 02:33N 33°46' W 118°13'12026923.6
2014-Sep-11 02:23N 29°44' W 095°09'12021454.5
2014-Sep-11 01:33N 33°46' W 118°13'1205127611.8
2014-Sep-11 01:33N 29°45' W 095°04'12051216.7
2014-Sep-11 00:33N 33°46' W 118°13'1208310672.6
2014-Sep-11 00:33N 29°44' W 095°01'12081213.2
2014-Sep-10 23:33N 33°46' W 118°13'1208289961.1
2014-Sep-10 23:33N 29°44' W 095°01'0 0.0
2014-Sep-10 22:33N 29°44' W 095°01'120865900.3
2014-Sep-10 22:32N 33°46' W 118°13'12081237.7
2014-Sep-10 21:33N 29°44' W 095°01'1208724901.7
2014-Sep-10 21:33N 33°46' W 118°13'12081210.2
2014-Sep-10 20:33N 29°44' W 095°01'1208724902.8
2014-Sep-10 20:33N 33°46' W 118°13'12081209.8
2014-Sep-10 19:33N 29°44' W 095°01'1208724901.7
2014-Sep-10 19:33N 33°46' W 118°13'0 0.0
2014-Sep-10 18:33N 33°46' W 118°13'12081449803.4
2014-Sep-10 18:33N 29°44' W 095°01'4 4.3
2014-Sep-10 17:33N 29°40' W 094°59'12128485.8
2014-Sep-10 17:25N 33°46' W 118°13'0 0.0
2014-Sep-10 16:33N 33°46' W 118°13'1216312672.7
2014-Sep-10 16:33N 29°34' W 094°55'12161220.7
2014-Sep-10 15:33N 33°46' W 118°13'1221314034.3
2014-Sep-10 15:33N 29°28' W 094°51'12211226.0
2014-Sep-10 14:33N 33°46' W 118°13'122613214.0
2014-Sep-10 14:28N 29°22' W 094°48'12261269.3
2014-Sep-10 13:30N 33°46' W 118°13'0 0.0
2014-Sep-10 12:32N 33°46' W 118°13'0 0.0
2014-Sep-10 11:33N 33°46' W 118°13'0 0.0
2014-Sep-10 10:33N 33°46' W 118°13'0 0.0
2014-Sep-10 09:33N 33°46' W 118°13'0 0.0
2014-Sep-10 08:33N 33°46' W 118°13'0 0.0
2014-Sep-10 07:33N 33°46' W 118°13'0 0.0
2014-Sep-10 06:33N 33°46' W 118°13'0 0.0
2014-Sep-10 05:33N 33°46' W 118°13'0 0.0
2014-Sep-10 04:33N 33°46' W 118°13'0 0.0
2014-Sep-10 03:33N 33°46' W 118°13'0 0.0
2014-Sep-10 02:33N 33°46' W 118°13'0 0.0
2014-Sep-10 01:33N 33°46' W 118°13'0 0.0
2014-Sep-10 00:33N 33°46' W 118°13'0 0.0
2014-Sep-09 23:23N 33°46' W 118°13'0 0.0
2014-Sep-09 22:27N 33°46' W 118°13'0 0.0
2014-Sep-09 21:33N 33°46' W 118°13'0 0.0
2014-Sep-09 20:33N 33°46' W 118°13'0 0.0
2014-Sep-09 19:33N 33°46' W 118°13'0 0.0
2014-Sep-09 18:33N 33°46' W 118°13'0 0.0
2014-Sep-09 17:18N 33°46' W 118°13'0 0.0
2014-Sep-09 16:33N 33°46' W 118°13'0 0.0
2014-Sep-09 15:33N 33°46' W 118°13'0 0.0
2014-Sep-09 14:33N 33°46' W 118°13'0 0.0
2014-Sep-09 13:32N 33°46' W 118°13'0 0.0
2014-Sep-09 12:32N 33°46' W 118°13'0 0.0
2014-Sep-09 11:33N 33°46' W 118°13'0 0.0
2014-Sep-09 10:33N 33°46' W 118°13'0 0.0
2014-Sep-09 09:29N 33°46' W 118°13'0 0.0
2014-Sep-09 08:32N 33°46' W 118°13'0 0.0
2014-Sep-09 07:28N 33°46' W 118°13'0 0.0
2014-Sep-09 06:21N 33°46' W 118°13'0 0.0
2014-Sep-09 03:08N 33°46' W 118°13'0 0.0
2014-Sep-09 02:16N 33°46' W 118°13'0 0.0
2014-Sep-09 01:19N 33°46' W 118°13'0 0.0
2014-Sep-09 00:33N 33°46' W 118°13'0 0.0
2014-Sep-08 23:33N 33°46' W 118°13'12264970.1
2014-Sep-08 23:19N 29°22' W 094°48'5 6.9
2014-Sep-08 22:33N 29°27' W 094°51'122214669.1
2014-Sep-08 22:28N 33°46' W 118°13'12171327.7
2014-Sep-08 21:33N 29°33' W 094°55'7 7.5
2014-Sep-08 20:33N 29°40' W 094°58'1212229606.8
2014-Sep-08 20:33N 33°46' W 118°13'12061205.1
2014-Sep-08 19:33N 29°45' W 095°04'12067510.2
2014-Sep-08 19:23N 33°46' W 118°13'0 0.0
2014-Sep-08 18:32N 33°46' W 118°13'120062590.9
2014-Sep-08 18:31N 29°45' W 095°11'12001248.2
2014-Sep-08 17:33N 33°46' W 118°13'0 0.0
2014-Sep-08 16:33N 33°46' W 118°13'0 0.0
2014-Sep-08 15:32N 33°46' W 118°13'0 0.0
2014-Sep-08 14:33N 33°46' W 118°13'0 0.0
2014-Sep-08 13:33N 33°46' W 118°13'0 0.0
2014-Sep-08 12:30N 33°46' W 118°13'0 0.0
2014-Sep-08 11:33N 33°46' W 118°13'0 0.0
2014-Sep-08 10:33N 33°46' W 118°13'0 0.0
2014-Sep-08 09:32N 33°46' W 118°13'0 0.0
2014-Sep-08 08:33N 33°46' W 118°13'119776967.7
2014-Sep-08 08:32N 29°43' W 095°15'5 5.2
2014-Sep-08 07:34N 29°44' W 095°09'1202618055.3
2014-Sep-08 07:33N 33°46' W 118°13'0 0.0
2014-Sep-08 06:33N 33°46' W 118°13'12037520.7
2014-Sep-08 06:24N 29°47' W 095°06'12031433.0
2014-Sep-08 05:33N 33°46' W 118°13'12034698.4
2014-Sep-08 05:18N 29°47' W 095°06'12031611.6
2014-Sep-08 04:33N 33°46' W 118°13'0 0.0
2014-Sep-08 03:33N 33°46' W 118°13'0 0.0
2014-Sep-08 02:33N 33°46' W 118°13'0 0.0
2014-Sep-08 01:33N 33°46' W 118°13'0 0.0
2014-Sep-08 00:33N 33°46' W 118°13'0 0.0
2014-Sep-07 23:32N 33°46' W 118°13'1203607.0
2014-Sep-07 21:33N 29°47' W 095°06'12032165984.1
2014-Sep-07 21:33N 33°46' W 118°13'0 0.0
2014-Sep-07 20:33N 33°46' W 118°13'12035854.0
2014-Sep-07 20:21N 29°47' W 095°06'12031521.1
2014-Sep-07 19:33N 33°46' W 118°13'1204722503.1
2014-Sep-07 19:33N 29°46' W 095°05'12041196.2
2014-Sep-07 18:33N 33°46' W 118°13'119929982.4
2014-Sep-07 18:31N 29°45' W 095°12'11991256.5
2014-Sep-07 17:33N 33°46' W 118°13'0 0.0
2014-Sep-07 16:33N 33°46' W 118°13'0 0.0
2014-Sep-07 15:33N 33°46' W 118°13'0 0.0
2014-Sep-07 14:33N 33°46' W 118°13'0 0.0
2014-Sep-07 13:33N 33°46' W 118°13'0 0.0
2014-Sep-07 12:33N 33°46' W 118°13'11985302.7
2014-Sep-07 12:20N 29°43' W 095°14'11981551.9
2014-Sep-07 11:33N 33°46' W 118°13'0 0.0
2014-Sep-07 10:33N 33°46' W 118°13'0 0.0
2014-Sep-07 09:33N 33°46' W 118°13'0 0.0
2014-Sep-07 08:25N 33°46' W 118°13'0 0.0
2014-Sep-07 07:33N 33°46' W 118°13'0 0.0
2014-Sep-07 06:33N 33°46' W 118°13'0 0.0
2014-Sep-07 05:33N 33°46' W 118°13'0 0.0
2014-Sep-07 04:33N 33°46' W 118°13'0 0.0
2014-Sep-07 03:33N 33°46' W 118°13'0 0.0
2014-Sep-07 02:33N 33°46' W 118°13'0 0.0
2014-Sep-07 01:33N 33°46' W 118°13'0 0.0
2014-Sep-07 00:33N 33°46' W 118°13'0 0.0
2014-Sep-06 23:33N 33°46' W 118°13'0 0.0
2014-Sep-06 22:29N 33°46' W 118°13'0 0.0
2014-Sep-06 21:33N 33°46' W 118°13'0 0.1
2014-Sep-06 20:33N 33°46' W 118°13'119621530.3
2014-Sep-06 20:30N 29°44' W 095°16'11961259.1
2014-Sep-06 19:33N 33°46' W 118°13'1200432148.9
2014-Sep-06 19:33N 29°45' W 095°10'12001210.5
2014-Sep-06 18:33N 33°46' W 118°13'120427602.5
2014-Sep-06 18:31N 29°45' W 095°06'12041259.0
2014-Sep-06 17:33N 33°46' W 118°13'1204393946.4
2014-Sep-06 17:33N 29°45' W 095°06'0 0.0
2014-Sep-06 16:33N 29°45' W 095°06'12042960.0
2014-Sep-06 16:09N 33°46' W 118°13'0 0.0
2014-Sep-06 15:33N 33°46' W 118°13'1204722239.2
2014-Sep-06 15:33N 29°45' W 095°06'0 0.0
2014-Sep-06 14:33N 29°45' W 095°06'12041444478.4
2014-Sep-06 14:33N 33°46' W 118°13'12041145.5
2014-Sep-06 13:30N 29°45' W 095°06'0 0.0
2014-Sep-06 12:33N 29°45' W 095°06'120433592.5
2014-Sep-06 12:31N 33°46' W 118°13'12041188.5
2014-Sep-06 11:30N 29°45' W 095°06'12046835.1
2014-Sep-06 11:20N 33°46' W 118°13'12041303.3
2014-Sep-06 10:24N 29°45' W 095°06'0 0.0
2014-Sep-06 09:33N 29°45' W 095°06'0 0.0
2014-Sep-06 08:33N 29°45' W 095°06'120486668.7
2014-Sep-06 08:32N 33°46' W 118°13'12041220.0
2014-Sep-06 07:33N 29°45' W 095°06'120414444.8
2014-Sep-06 07:28N 33°46' W 118°13'  

Dump ship's entire track history